DEMMD EDDH-EDHE
Flight info
| Callsign | DEMMD |
|---|---|
| Flight time | 0h 4m |
| Altitude | |
| Route | EDDH/33 |
| Aircraft | SR22 |
Departure
| Time | 2026-04-26 17:06 |
|---|---|
| Airport | Hamburg Helmut Schmidt Airport (EDDH) |
Arrival
| Time | 2026-04-26 17:10 |
|---|---|
| Airport | Uetersen-Heist Airfield (EDHE) |
| Time | Latitude | Longitude | Altitude | Speed | Heading |
|---|---|---|---|---|---|
| 2026-04-26 17:06 | 53.59466 | 9.60132 | 1542 ft | 153 kts | 334° |
| 2026-04-26 17:06 | 53.60405 | 9.59959 | 1779 ft | 136 kts | 13° |
| 2026-04-26 17:06 | 53.61301 | 9.60716 | 1403 ft | 157 kts | 30° |
| 2026-04-26 17:06 | 53.62046 | 9.61928 | 1332 ft | 138 kts | 46° |
| 2026-04-26 17:07 | 53.62586 | 9.63158 | 1216 ft | 125 kts | 53° |
| 2026-04-26 17:07 | 53.62981 | 9.64435 | 1183 ft | 117 kts | 64° |
| 2026-04-26 17:07 | 53.63171 | 9.65753 | 1138 ft | 115 kts | 79° |
| 2026-04-26 17:07 | 53.63247 | 9.67092 | 1048 ft | 117 kts | 80° |
| 2026-04-26 17:08 | 53.63278 | 9.68492 | 946 ft | 122 kts | 87° |
| 2026-04-26 17:08 | 53.63226 | 9.69914 | 853 ft | 122 kts | 88° |
| 2026-04-26 17:08 | 53.63205 | 9.71328 | 718 ft | 115 kts | 82° |
| 2026-04-26 17:08 | 53.63555 | 9.72288 | 611 ft | 87 kts | 14° |
| 2026-04-26 17:09 | 53.63676 | 9.72327 | 563 ft | 86 kts | 1° |
| 2026-04-26 17:09 | 53.64308 | 9.72289 | 300 ft | 77 kts | 333° |
| 2026-04-26 17:09 | 53.64608 | 9.71494 | 138 ft | 87 kts | 291° |
| 2026-04-26 17:10 | 53.64694 | 9.70589 | 26 ft | 63 kts | 293° |
| 2026-04-26 17:10 | 53.64707 | 9.70078 | 28 ft | 29 kts | 238° |
| 2026-04-26 17:10 | 53.64619 | 9.70007 | 29 ft | 0 kts | 184° |
| 2026-04-26 17:10 | 53.64610 | 9.70006 | 29 ft | 8 kts | 184° |
| 2026-04-26 17:11 | 53.64521 | 9.70099 | 29 ft | 19 kts | 163° |
| 2026-04-26 17:11 | 53.64447 | 9.70119 | 25 ft | 0 kts | 127° |